sensor_id;sensor_type;location;lat;lon;timestamp;temperature;humidity
53904;DHT22;39812;52.430;16.936;2023-08-07T00:01:47;12.90;99.90
53904;DHT22;39812;52.430;16.936;2023-08-07T00:04:13;12.90;99.90
53904;DHT22;39812;52.430;16.936;2023-08-07T00:06:38;12.90;99.90
53904;DHT22;39812;52.430;16.936;2023-08-07T00:09:04;12.90;99.90
53904;DHT22;39812;52.430;16.936;2023-08-07T00:11:30;12.90;99.90
53904;DHT22;39812;52.430;16.936;2023-08-07T00:13:57;12.90;99.90
53904;DHT22;39812;52.430;16.936;2023-08-07T00:16:22;12.90;99.90
53904;DHT22;39812;52.430;16.936;2023-08-07T00:18:48;13.00;99.90
53904;DHT22;39812;52.430;16.936;2023-08-07T00:21:14;13.00;99.90
53904;DHT22;39812;52.430;16.936;2023-08-07T00:23:39;13.00;99.90
53904;DHT22;39812;52.430;16.936;2023-08-07T00:26:05;12.90;99.90
53904;DHT22;39812;52.430;16.936;2023-08-07T00:28:30;12.90;99.90
53904;DHT22;39812;52.430;16.936;2023-08-07T00:30:56;12.90;99.90
53904;DHT22;39812;52.430;16.936;2023-08-07T00:33:22;12.90;99.90
53904;DHT22;39812;52.430;16.936;2023-08-07T00:35:48;12.90;99.90
53904;DHT22;39812;52.430;16.936;2023-08-07T00:38:13;12.90;99.90
53904;DHT22;39812;52.430;16.936;2023-08-07T00:40:40;12.90;99.90
53904;DHT22;39812;52.430;16.936;2023-08-07T00:43:06;12.90;99.90
53904;DHT22;39812;52.430;16.936;2023-08-07T00:45:38;12.90;99.90
53904;DHT22;39812;52.430;16.936;2023-08-07T00:48:06;12.90;99.90
53904;DHT22;39812;52.430;16.936;2023-08-07T00:50:32;12.90;99.90
53904;DHT22;39812;52.430;16.936;2023-08-07T00:52:58;12.90;99.90
53904;DHT22;39812;52.430;16.936;2023-08-07T00:55:25;12.90;99.90
53904;DHT22;39812;52.430;16.936;2023-08-07T00:57:51;12.90;99.90
53904;DHT22;39812;52.430;16.936;2023-08-07T01:00:17;12.90;99.90
53904;DHT22;39812;52.430;16.936;2023-08-07T01:02:43;12.90;99.90
53904;DHT22;39812;52.430;16.936;2023-08-07T01:05:09;12.80;99.90
53904;DHT22;39812;52.430;16.936;2023-08-07T01:07:34;12.80;99.90
53904;DHT22;39812;52.430;16.936;2023-08-07T01:10:00;12.80;99.90
53904;DHT22;39812;52.430;16.936;2023-08-07T01:12:30;12.80;99.90
53904;DHT22;39812;52.430;16.936;2023-08-07T01:15:15;12.80;99.90
53904;DHT22;39812;52.430;16.936;2023-08-07T01:17:43;12.80;99.90
53904;DHT22;39812;52.430;16.936;2023-08-07T01:20:10;12.80;99.90
53904;DHT22;39812;52.430;16.936;2023-08-07T01:22:36;12.80;99.90
53904;DHT22;39812;52.430;16.936;2023-08-07T01:25:02;12.80;99.90
53904;DHT22;39812;52.430;16.936;2023-08-07T01:35:22;12.90;99.90
53904;DHT22;39812;52.430;16.936;2023-08-07T01:37:52;12.80;99.90
53904;DHT22;39812;52.430;16.936;2023-08-07T01:40:20;12.90;99.90
53904;DHT22;39812;52.430;16.936;2023-08-07T01:42:46;12.80;99.90
53904;DHT22;39812;52.430;16.936;2023-08-07T01:45:13;12.90;99.90
53904;DHT22;39812;52.430;16.936;2023-08-07T01:47:38;12.90;99.90
53904;DHT22;39812;52.430;16.936;2023-08-07T01:50:04;12.90;99.90
53904;DHT22;39812;52.430;16.936;2023-08-07T01:52:30;12.90;99.90
53904;DHT22;39812;52.430;16.936;2023-08-07T01:54:56;12.90;99.90
53904;DHT22;39812;52.430;16.936;2023-08-07T01:57:21;12.80;99.90
53904;DHT22;39812;52.430;16.936;2023-08-07T01:59:47;12.80;99.90
53904;DHT22;39812;52.430;16.936;2023-08-07T02:02:12;12.80;99.90
53904;DHT22;39812;52.430;16.936;2023-08-07T02:04:38;12.80;99.90
53904;DHT22;39812;52.430;16.936;2023-08-07T02:07:04;12.80;99.90
53904;DHT22;39812;52.430;16.936;2023-08-07T02:09:29;12.70;99.90
53904;DHT22;39812;52.430;16.936;2023-08-07T02:11:55;12.70;99.90
53904;DHT22;39812;52.430;16.936;2023-08-07T02:14:20;12.70;99.90
53904;DHT22;39812;52.430;16.936;2023-08-07T02:16:46;12.70;99.90
53904;DHT22;39812;52.430;16.936;2023-08-07T02:19:12;12.70;99.90
53904;DHT22;39812;52.430;16.936;2023-08-07T02:21:37;12.70;99.90
53904;DHT22;39812;52.430;16.936;2023-08-07T02:24:03;12.60;99.90
53904;DHT22;39812;52.430;16.936;2023-08-07T02:26:29;12.60;99.90
53904;DHT22;39812;52.430;16.936;2023-08-07T02:28:54;12.70;99.90
53904;DHT22;39812;52.430;16.936;2023-08-07T02:31:20;12.60;99.90
53904;DHT22;39812;52.430;16.936;2023-08-07T02:33:46;12.70;99.90
53904;DHT22;39812;52.430;16.936;2023-08-07T02:36:12;12.70;99.90
53904;DHT22;39812;52.430;16.936;2023-08-07T02:38:37;12.70;99.90
53904;DHT22;39812;52.430;16.936;2023-08-07T02:41:03;12.60;99.90
53904;DHT22;39812;52.430;16.936;2023-08-07T02:43:29;12.70;99.90
53904;DHT22;39812;52.430;16.936;2023-08-07T02:45:55;12.60;99.90
53904;DHT22;39812;52.430;16.936;2023-08-07T02:48:20;12.60;99.90
53904;DHT22;39812;52.430;16.936;2023-08-07T02:50:46;12.60;99.90
53904;DHT22;39812;52.430;16.936;2023-08-07T02:53:12;12.70;99.90
53904;DHT22;39812;52.430;16.936;2023-08-07T02:55:37;12.70;99.90
53904;DHT22;39812;52.430;16.936;2023-08-07T02:58:03;12.70;99.90
53904;DHT22;39812;52.430;16.936;2023-08-07T03:00:28;12.70;99.90
53904;DHT22;39812;52.430;16.936;2023-08-07T03:02:54;12.70;99.90
53904;DHT22;39812;52.430;16.936;2023-08-07T03:05:20;12.70;99.90
53904;DHT22;39812;52.430;16.936;2023-08-07T03:07:45;12.60;99.90
53904;DHT22;39812;52.430;16.936;2023-08-07T03:10:11;12.60;99.90
53904;DHT22;39812;52.430;16.936;2023-08-07T03:12:37;12.60;99.90
53904;DHT22;39812;52.430;16.936;2023-08-07T03:15:04;12.50;99.90
53904;DHT22;39812;52.430;16.936;2023-08-07T03:17:30;12.50;99.90
53904;DHT22;39812;52.430;16.936;2023-08-07T03:19:56;12.50;99.90
53904;DHT22;39812;52.430;16.936;2023-08-07T03:22:21;12.40;99.90
53904;DHT22;39812;52.430;16.936;2023-08-07T03:24:47;12.40;99.90
53904;DHT22;39812;52.430;16.936;2023-08-07T03:27:13;12.40;99.90
53904;DHT22;39812;52.430;16.936;2023-08-07T03:29:39;12.30;99.90
53904;DHT22;39812;52.430;16.936;2023-08-07T03:32:04;12.40;99.90
53904;DHT22;39812;52.430;16.936;2023-08-07T03:34:30;12.30;99.90
53904;DHT22;39812;52.430;16.936;2023-08-07T03:36:56;12.20;99.90
53904;DHT22;39812;52.430;16.936;2023-08-07T03:39:22;12.20;99.90
53904;DHT22;39812;52.430;16.936;2023-08-07T03:41:47;12.20;99.90
53904;DHT22;39812;52.430;16.936;2023-08-07T03:44:13;12.20;99.90
53904;DHT22;39812;52.430;16.936;2023-08-07T03:46:38;12.20;99.90
53904;DHT22;39812;52.430;16.936;2023-08-07T03:49:05;12.20;99.90
53904;DHT22;39812;52.430;16.936;2023-08-07T03:51:30;12.20;99.90
53904;DHT22;39812;52.430;16.936;2023-08-07T03:53:57;12.20;99.90
53904;DHT22;39812;52.430;16.936;2023-08-07T03:56:23;12.20;99.90
53904;DHT22;39812;52.430;16.936;2023-08-07T03:58:48;12.20;99.90
53904;DHT22;39812;52.430;16.936;2023-08-07T04:01:15;12.30;99.90
53904;DHT22;39812;52.430;16.936;2023-08-07T04:03:41;12.30;99.90
53904;DHT22;39812;52.430;16.936;2023-08-07T04:06:07;12.30;99.90
53904;DHT22;39812;52.430;16.936;2023-08-07T04:08:33;12.30;99.90
53904;DHT22;39812;52.430;16.936;2023-08-07T04:11:00;12.40;99.90
53904;DHT22;39812;52.430;16.936;2023-08-07T04:13:26;12.40;99.90
53904;DHT22;39812;52.430;16.936;2023-08-07T04:15:52;12.40;99.90
53904;DHT22;39812;52.430;16.936;2023-08-07T04:18:18;12.40;99.90
53904;DHT22;39812;52.430;16.936;2023-08-07T04:20:52;12.40;99.90
53904;DHT22;39812;52.430;16.936;2023-08-07T04:23:18;12.50;99.90
53904;DHT22;39812;52.430;16.936;2023-08-07T04:25:45;12.60;99.90
53904;DHT22;39812;52.430;16.936;2023-08-07T04:28:11;12.60;99.90
53904;DHT22;39812;52.430;16.936;2023-08-07T04:30:37;12.60;99.90
53904;DHT22;39812;52.430;16.936;2023-08-07T04:33:02;12.60;99.90
53904;DHT22;39812;52.430;16.936;2023-08-07T04:35:28;12.60;99.90
53904;DHT22;39812;52.430;16.936;2023-08-07T04:37:54;12.60;99.90
53904;DHT22;39812;52.430;16.936;2023-08-07T04:40:19;12.70;99.90
53904;DHT22;39812;52.430;16.936;2023-08-07T04:42:45;12.70;99.90
53904;DHT22;39812;52.430;16.936;2023-08-07T04:45:10;12.80;99.90
53904;DHT22;39812;52.430;16.936;2023-08-07T04:47:36;12.80;99.90
53904;DHT22;39812;52.430;16.936;2023-08-07T04:50:01;12.90;99.90
53904;DHT22;39812;52.430;16.936;2023-08-07T04:52:28;12.90;99.90
53904;DHT22;39812;52.430;16.936;2023-08-07T04:54:53;12.90;99.90
53904;DHT22;39812;52.430;16.936;2023-08-07T04:57:19;12.90;99.90
53904;DHT22;39812;52.430;16.936;2023-08-07T04:59:44;13.00;99.90
53904;DHT22;39812;52.430;16.936;2023-08-07T05:02:10;13.10;99.90
53904;DHT22;39812;52.430;16.936;2023-08-07T05:04:35;13.20;99.90
53904;DHT22;39812;52.430;16.936;2023-08-07T05:07:01;13.20;99.90
53904;DHT22;39812;52.430;16.936;2023-08-07T05:09:27;13.30;99.90
53904;DHT22;39812;52.430;16.936;2023-08-07T05:11:52;13.30;99.90
53904;DHT22;39812;52.430;16.936;2023-08-07T05:14:18;13.20;99.90
53904;DHT22;39812;52.430;16.936;2023-08-07T05:16:43;13.20;99.90
53904;DHT22;39812;52.430;16.936;2023-08-07T05:19:09;13.10;99.90
53904;DHT22;39812;52.430;16.936;2023-08-07T05:21:35;13.20;99.90
53904;DHT22;39812;52.430;16.936;2023-08-07T05:24:01;13.20;99.90
53904;DHT22;39812;52.430;16.936;2023-08-07T05:26:26;13.30;99.90
53904;DHT22;39812;52.430;16.936;2023-08-07T05:28:54;13.40;99.90
53904;DHT22;39812;52.430;16.936;2023-08-07T05:31:21;13.40;99.90
53904;DHT22;39812;52.430;16.936;2023-08-07T05:33:47;13.50;99.90
53904;DHT22;39812;52.430;16.936;2023-08-07T05:36:12;13.60;99.90
53904;DHT22;39812;52.430;16.936;2023-08-07T05:38:38;13.70;99.90
53904;DHT22;39812;52.430;16.936;2023-08-07T05:41:03;13.80;99.90
53904;DHT22;39812;52.430;16.936;2023-08-07T05:43:29;13.90;99.90
53904;DHT22;39812;52.430;16.936;2023-08-07T05:45:54;14.00;99.90
53904;DHT22;39812;52.430;16.936;2023-08-07T05:48:20;14.10;99.90
53904;DHT22;39812;52.430;16.936;2023-08-07T05:50:45;14.20;99.90
53904;DHT22;39812;52.430;16.936;2023-08-07T05:53:11;14.40;99.90
53904;DHT22;39812;52.430;16.936;2023-08-07T05:55:39;14.40;99.90
53904;DHT22;39812;52.430;16.936;2023-08-07T05:58:06;14.60;99.90
53904;DHT22;39812;52.430;16.936;2023-08-07T06:00:32;14.50;99.90
53904;DHT22;39812;52.430;16.936;2023-08-07T06:02:57;14.60;99.90
53904;DHT22;39812;52.430;16.936;2023-08-07T06:05:23;14.80;99.90
53904;DHT22;39812;52.430;16.936;2023-08-07T06:07:49;14.90;99.90
53904;DHT22;39812;52.430;16.936;2023-08-07T06:10:15;15.00;99.90
53904;DHT22;39812;52.430;16.936;2023-08-07T06:12:41;15.20;99.90
53904;DHT22;39812;52.430;16.936;2023-08-07T06:15:07;15.20;99.90
53904;DHT22;39812;52.430;16.936;2023-08-07T06:17:32;15.30;99.90
53904;DHT22;39812;52.430;16.936;2023-08-07T06:19:58;15.30;99.90
53904;DHT22;39812;52.430;16.936;2023-08-07T06:22:24;15.30;99.90
53904;DHT22;39812;52.430;16.936;2023-08-07T06:24:50;15.40;99.90
53904;DHT22;39812;52.430;16.936;2023-08-07T06:27:15;15.40;99.90
53904;DHT22;39812;52.430;16.936;2023-08-07T06:29:41;15.50;99.90
53904;DHT22;39812;52.430;16.936;2023-08-07T06:32:07;15.40;99.90
53904;DHT22;39812;52.430;16.936;2023-08-07T06:34:32;15.40;99.90
53904;DHT22;39812;52.430;16.936;2023-08-07T06:37:00;15.50;99.90
53904;DHT22;39812;52.430;16.936;2023-08-07T06:39:25;15.60;99.90
53904;DHT22;39812;52.430;16.936;2023-08-07T06:41:51;15.60;99.90
53904;DHT22;39812;52.430;16.936;2023-08-07T06:44:17;15.70;99.90
53904;DHT22;39812;52.430;16.936;2023-08-07T06:46:42;15.90;99.90
53904;DHT22;39812;52.430;16.936;2023-08-07T06:49:08;16.10;99.90
53904;DHT22;39812;52.430;16.936;2023-08-07T06:51:33;16.00;99.90
53904;DHT22;39812;52.430;16.936;2023-08-07T06:53:59;16.20;99.90
53904;DHT22;39812;52.430;16.936;2023-08-07T06:56:25;16.10;99.90
53904;DHT22;39812;52.430;16.936;2023-08-07T06:58:50;16.50;99.90
53904;DHT22;39812;52.430;16.936;2023-08-07T07:01:16;16.80;99.90
53904;DHT22;39812;52.430;16.936;2023-08-07T07:03:41;16.90;99.90
53904;DHT22;39812;52.430;16.936;2023-08-07T07:06:07;16.60;99.90
53904;DHT22;39812;52.430;16.936;2023-08-07T07:08:33;16.50;99.90
53904;DHT22;39812;52.430;16.936;2023-08-07T07:10:59;16.60;99.90
53904;DHT22;39812;52.430;16.936;2023-08-07T07:13:25;16.70;99.90
53904;DHT22;39812;52.430;16.936;2023-08-07T07:15:54;16.90;99.90
53904;DHT22;39812;52.430;16.936;2023-08-07T07:18:20;16.60;99.90
53904;DHT22;39812;52.430;16.936;2023-08-07T07:20:46;16.70;99.90
53904;DHT22;39812;52.430;16.936;2023-08-07T07:23:11;16.60;99.90
53904;DHT22;39812;52.430;16.936;2023-08-07T07:25:37;16.30;99.90
53904;DHT22;39812;52.430;16.936;2023-08-07T07:28:03;16.30;99.90
53904;DHT22;39812;52.430;16.936;2023-08-07T07:30:28;16.20;99.90
53904;DHT22;39812;52.430;16.936;2023-08-07T07:32:54;16.20;99.90
53904;DHT22;39812;52.430;16.936;2023-08-07T07:35:19;16.40;99.90
53904;DHT22;39812;52.430;16.936;2023-08-07T07:37:45;16.60;99.90
53904;DHT22;39812;52.430;16.936;2023-08-07T07:40:11;16.80;99.90
53904;DHT22;39812;52.430;16.936;2023-08-07T07:42:36;16.80;99.90
53904;DHT22;39812;52.430;16.936;2023-08-07T07:45:02;16.70;99.90
53904;DHT22;39812;52.430;16.936;2023-08-07T07:47:28;16.60;99.90
53904;DHT22;39812;52.430;16.936;2023-08-07T07:50:05;16.70;99.90
53904;DHT22;39812;52.430;16.936;2023-08-07T07:52:32;17.00;99.90
53904;DHT22;39812;52.430;16.936;2023-08-07T07:54:58;17.20;99.90
53904;DHT22;39812;52.430;16.936;2023-08-07T07:57:23;17.30;99.90
53904;DHT22;39812;52.430;16.936;2023-08-07T07:59:50;17.30;99.90
53904;DHT22;39812;52.430;16.936;2023-08-07T08:02:15;17.50;99.90
53904;DHT22;39812;52.430;16.936;2023-08-07T08:04:42;17.40;99.90
53904;DHT22;39812;52.430;16.936;2023-08-07T08:07:08;17.80;99.90
53904;DHT22;39812;52.430;16.936;2023-08-07T08:09:34;17.90;99.30
53904;DHT22;39812;52.430;16.936;2023-08-07T08:11:59;17.90;99.50
53904;DHT22;39812;52.430;16.936;2023-08-07T08:14:25;18.00;99.70
53904;DHT22;39812;52.430;16.936;2023-08-07T08:16:51;17.90;99.80
53904;DHT22;39812;52.430;16.936;2023-08-07T08:19:16;17.60;99.90
53904;DHT22;39812;52.430;16.936;2023-08-07T08:21:42;17.30;99.90
53904;DHT22;39812;52.430;16.936;2023-08-07T08:24:08;17.40;99.90
53904;DHT22;39812;52.430;16.936;2023-08-07T08:26:34;17.70;99.70
53904;DHT22;39812;52.430;16.936;2023-08-07T08:29:00;18.00;99.10
53904;DHT22;39812;52.430;16.936;2023-08-07T08:31:25;18.00;98.90
53904;DHT22;39812;52.430;16.936;2023-08-07T08:33:51;18.30;99.10
53904;DHT22;39812;52.430;16.936;2023-08-07T08:36:17;18.40;98.20
53904;DHT22;39812;52.430;16.936;2023-08-07T08:38:43;18.50;98.10
53904;DHT22;39812;52.430;16.936;2023-08-07T08:41:10;18.40;97.80
53904;DHT22;39812;52.430;16.936;2023-08-07T08:43:38;18.30;98.20
53904;DHT22;39812;52.430;16.936;2023-08-07T08:46:05;17.80;98.80
53904;DHT22;39812;52.430;16.936;2023-08-07T08:48:34;17.60;98.80
53904;DHT22;39812;52.430;16.936;2023-08-07T08:51:01;17.50;99.40
53904;DHT22;39812;52.430;16.936;2023-08-07T08:53:28;17.40;99.20
53904;DHT22;39812;52.430;16.936;2023-08-07T08:55:54;17.10;99.20
53904;DHT22;39812;52.430;16.936;2023-08-07T08:58:20;17.00;99.90
53904;DHT22;39812;52.430;16.936;2023-08-07T09:00:47;17.20;99.90
53904;DHT22;39812;52.430;16.936;2023-08-07T09:03:14;17.40;99.90
53904;DHT22;39812;52.430;16.936;2023-08-07T09:05:40;17.80;99.90
53904;DHT22;39812;52.430;16.936;2023-08-07T09:08:06;18.00;99.60
53904;DHT22;39812;52.430;16.936;2023-08-07T09:10:32;18.00;99.30
53904;DHT22;39812;52.430;16.936;2023-08-07T09:13:03;18.20;99.00
53904;DHT22;39812;52.430;16.936;2023-08-07T09:15:31;18.60;98.20
53904;DHT22;39812;52.430;16.936;2023-08-07T09:17:58;19.30;97.60
53904;DHT22;39812;52.430;16.936;2023-08-07T09:20:31;19.80;95.90
53904;DHT22;39812;52.430;16.936;2023-08-07T09:22:57;19.50;96.10
53904;DHT22;39812;52.430;16.936;2023-08-07T09:25:27;19.70;95.80
53904;DHT22;39812;52.430;16.936;2023-08-07T09:27:55;20.10;94.70
53904;DHT22;39812;52.430;16.936;2023-08-07T09:30:21;19.90;94.50
53904;DHT22;39812;52.430;16.936;2023-08-07T09:32:49;19.80;93.60
53904;DHT22;39812;52.430;16.936;2023-08-07T09:35:15;19.50;94.80
53904;DHT22;39812;52.430;16.936;2023-08-07T09:37:43;19.20;94.20
53904;DHT22;39812;52.430;16.936;2023-08-07T09:40:09;19.20;94.70
53904;DHT22;39812;52.430;16.936;2023-08-07T09:42:37;19.30;94.20
53904;DHT22;39812;52.430;16.936;2023-08-07T09:47:46;19.40;93.30
53904;DHT22;39812;52.430;16.936;2023-08-07T09:50:18;19.40;93.00
53904;DHT22;39812;52.430;16.936;2023-08-07T09:52:48;19.20;93.20
53904;DHT22;39812;52.430;16.936;2023-08-07T09:55:14;19.40;92.30
53904;DHT22;39812;52.430;16.936;2023-08-07T09:57:43;19.20;92.30
53904;DHT22;39812;52.430;16.936;2023-08-07T10:00:09;19.00;92.80
53904;DHT22;39812;52.430;16.936;2023-08-07T10:02:43;18.90;93.00
53904;DHT22;39812;52.430;16.936;2023-08-07T10:05:10;18.70;93.20
53904;DHT22;39812;52.430;16.936;2023-08-07T10:07:38;19.00;91.40
53904;DHT22;39812;52.430;16.936;2023-08-07T10:10:05;19.10;91.80
53904;DHT22;39812;52.430;16.936;2023-08-07T10:12:32;19.40;92.00
53904;DHT22;39812;52.430;16.936;2023-08-07T10:14:59;19.60;91.50
53904;DHT22;39812;52.430;16.936;2023-08-07T10:17:25;19.40;91.90
53904;DHT22;39812;52.430;16.936;2023-08-07T10:19:51;19.70;92.20
53904;DHT22;39812;52.430;16.936;2023-08-07T10:22:19;19.90;91.40
53904;DHT22;39812;52.430;16.936;2023-08-07T10:24:48;19.40;91.70
53904;DHT22;39812;52.430;16.936;2023-08-07T10:27:17;19.00;92.50
53904;DHT22;39812;52.430;16.936;2023-08-07T10:29:47;19.10;92.40
53904;DHT22;39812;52.430;16.936;2023-08-07T10:32:16;19.00;92.90
53904;DHT22;39812;52.430;16.936;2023-08-07T10:34:47;18.80;93.40
53904;DHT22;39812;52.430;16.936;2023-08-07T10:37:33;18.80;93.70
53904;DHT22;39812;52.430;16.936;2023-08-07T10:40:04;19.10;93.00
53904;DHT22;39812;52.430;16.936;2023-08-07T10:45:18;18.60;93.50
53904;DHT22;39812;52.430;16.936;2023-08-07T10:47:43;19.20;93.10
53904;DHT22;39812;52.430;16.936;2023-08-07T10:50:09;19.30;92.50
53904;DHT22;39812;52.430;16.936;2023-08-07T10:52:38;19.30;91.90
53904;DHT22;39812;52.430;16.936;2023-08-07T10:55:13;19.10;92.40
53904;DHT22;39812;52.430;16.936;2023-08-07T10:57:40;18.70;92.40
53904;DHT22;39812;52.430;16.936;2023-08-07T11:00:06;18.30;92.90
53904;DHT22;39812;52.430;16.936;2023-08-07T11:02:37;18.20;93.70
53904;DHT22;39812;52.430;16.936;2023-08-07T11:05:06;18.60;93.60
53904;DHT22;39812;52.430;16.936;2023-08-07T11:07:32;19.00;92.50
53904;DHT22;39812;52.430;16.936;2023-08-07T11:09:59;19.20;92.20
53904;DHT22;39812;52.430;16.936;2023-08-07T11:12:28;19.30;92.30
53904;DHT22;39812;52.430;16.936;2023-08-07T11:14:55;19.60;92.00
53904;DHT22;39812;52.430;16.936;2023-08-07T11:17:27;19.30;92.30
53904;DHT22;39812;52.430;16.936;2023-08-07T11:19:55;19.10;92.60
53904;DHT22;39812;52.430;16.936;2023-08-07T11:22:21;18.90;92.50
53904;DHT22;39812;52.430;16.936;2023-08-07T11:24:47;19.50;92.40
53904;DHT22;39812;52.430;16.936;2023-08-07T11:27:13;19.90;92.10
53904;DHT22;39812;52.430;16.936;2023-08-07T11:29:38;20.50;91.50
53904;DHT22;39812;52.430;16.936;2023-08-07T11:32:05;20.80;90.60
53904;DHT22;39812;52.430;16.936;2023-08-07T11:34:31;20.70;89.20
53904;DHT22;39812;52.430;16.936;2023-08-07T11:36:56;21.10;89.00
53904;DHT22;39812;52.430;16.936;2023-08-07T11:39:23;21.20;88.60
53904;DHT22;39812;52.430;16.936;2023-08-07T11:41:53;22.00;87.00
53904;DHT22;39812;52.430;16.936;2023-08-07T11:44:19;21.90;85.50
53904;DHT22;39812;52.430;16.936;2023-08-07T11:46:44;22.00;85.70
53904;DHT22;39812;52.430;16.936;2023-08-07T11:49:10;21.80;83.70
53904;DHT22;39812;52.430;16.936;2023-08-07T11:51:36;22.20;84.10
53904;DHT22;39812;52.430;16.936;2023-08-07T11:54:02;22.20;82.60
53904;DHT22;39812;52.430;16.936;2023-08-07T11:56:28;22.40;82.40
53904;DHT22;39812;52.430;16.936;2023-08-07T11:58:54;22.60;81.90
53904;DHT22;39812;52.430;16.936;2023-08-07T12:01:24;22.20;81.00
53904;DHT22;39812;52.430;16.936;2023-08-07T12:06:34;21.40;81.30
53904;DHT22;39812;52.430;16.936;2023-08-07T12:09:02;21.70;79.30
53904;DHT22;39812;52.430;16.936;2023-08-07T12:11:29;21.70;78.30
53904;DHT22;39812;52.430;16.936;2023-08-07T12:13:55;21.70;79.30
53904;DHT22;39812;52.430;16.936;2023-08-07T12:16:21;21.40;80.90
53904;DHT22;39812;52.430;16.936;2023-08-07T12:18:51;20.80;80.50
53904;DHT22;39812;52.430;16.936;2023-08-07T12:21:21;20.40;80.50
53904;DHT22;39812;52.430;16.936;2023-08-07T12:23:50;19.90;83.30
53904;DHT22;39812;52.430;16.936;2023-08-07T12:26:16;19.40;83.30
53904;DHT22;39812;52.430;16.936;2023-08-07T12:28:42;19.20;84.80
53904;DHT22;39812;52.430;16.936;2023-08-07T12:31:07;19.10;85.90
53904;DHT22;39812;52.430;16.936;2023-08-07T12:33:33;19.10;86.40
53904;DHT22;39812;52.430;16.936;2023-08-07T12:36:00;18.90;88.90
53904;DHT22;39812;52.430;16.936;2023-08-07T12:38:26;18.90;90.00
53904;DHT22;39812;52.430;16.936;2023-08-07T12:40:52;19.10;90.10
53904;DHT22;39812;52.430;16.936;2023-08-07T12:43:18;18.90;89.60
53904;DHT22;39812;52.430;16.936;2023-08-07T12:45:43;18.80;89.70
53904;DHT22;39812;52.430;16.936;2023-08-07T12:48:09;18.90;89.60
53904;DHT22;39812;52.430;16.936;2023-08-07T12:50:35;18.80;89.80
53904;DHT22;39812;52.430;16.936;2023-08-07T12:53:01;18.70;90.50
53904;DHT22;39812;52.430;16.936;2023-08-07T12:55:27;18.50;90.30
53904;DHT22;39812;52.430;16.936;2023-08-07T12:57:54;18.50;90.60
53904;DHT22;39812;52.430;16.936;2023-08-07T13:00:20;18.40;90.80
53904;DHT22;39812;52.430;16.936;2023-08-07T13:02:48;18.40;91.40
53904;DHT22;39812;52.430;16.936;2023-08-07T13:05:15;18.10;92.70
53904;DHT22;39812;52.430;16.936;2023-08-07T13:07:42;17.40;95.80
53904;DHT22;39812;52.430;16.936;2023-08-07T13:10:10;15.60;99.90
53904;DHT22;39812;52.430;16.936;2023-08-07T13:12:40;14.80;99.90
53904;DHT22;39812;52.430;16.936;2023-08-07T13:15:08;14.80;99.90
53904;DHT22;39812;52.430;16.936;2023-08-07T13:17:37;15.00;99.90
53904;DHT22;39812;52.430;16.936;2023-08-07T13:20:04;15.40;99.90
53904;DHT22;39812;52.430;16.936;2023-08-07T13:22:42;15.80;99.90
53904;DHT22;39812;52.430;16.936;2023-08-07T13:25:09;16.50;99.90
53904;DHT22;39812;52.430;16.936;2023-08-07T13:27:36;17.60;99.90
53904;DHT22;39812;52.430;16.936;2023-08-07T13:30:03;18.70;99.90
53904;DHT22;39812;52.430;16.936;2023-08-07T13:32:29;19.60;99.90
53904;DHT22;39812;52.430;16.936;2023-08-07T13:34:55;20.40;98.40
53904;DHT22;39812;52.430;16.936;2023-08-07T13:37:20;19.90;98.80
53904;DHT22;39812;52.430;16.936;2023-08-07T13:39:46;19.70;98.20
53904;DHT22;39812;52.430;16.936;2023-08-07T13:42:15;19.60;98.10
53904;DHT22;39812;52.430;16.936;2023-08-07T13:44:40;20.00;98.00
53904;DHT22;39812;52.430;16.936;2023-08-07T13:47:06;20.80;96.90
53904;DHT22;39812;52.430;16.936;2023-08-07T13:49:32;20.90;95.50
53904;DHT22;39812;52.430;16.936;2023-08-07T13:51:57;21.40;95.40
53904;DHT22;39812;52.430;16.936;2023-08-07T13:54:24;21.50;94.00
53904;DHT22;39812;52.430;16.936;2023-08-07T13:56:50;21.60;93.20
53904;DHT22;39812;52.430;16.936;2023-08-07T13:59:16;21.30;94.40
53904;DHT22;39812;52.430;16.936;2023-08-07T14:01:41;20.80;94.30
53904;DHT22;39812;52.430;16.936;2023-08-07T14:04:07;20.80;95.40
53904;DHT22;39812;52.430;16.936;2023-08-07T14:06:33;20.20;95.60
53904;DHT22;39812;52.430;16.936;2023-08-07T14:08:58;20.00;95.90
53904;DHT22;39812;52.430;16.936;2023-08-07T14:11:24;19.50;96.90
53904;DHT22;39812;52.430;16.936;2023-08-07T14:13:56;19.10;97.10
53904;DHT22;39812;52.430;16.936;2023-08-07T14:16:23;18.90;97.80
53904;DHT22;39812;52.430;16.936;2023-08-07T14:18:48;18.70;98.10
53904;DHT22;39812;52.430;16.936;2023-08-07T14:21:14;19.00;97.60
53904;DHT22;39812;52.430;16.936;2023-08-07T14:23:41;18.90;97.70
53904;DHT22;39812;52.430;16.936;2023-08-07T14:26:08;19.30;97.50
53904;DHT22;39812;52.430;16.936;2023-08-07T14:28:33;20.60;95.30
53904;DHT22;39812;52.430;16.936;2023-08-07T14:30:59;21.50;93.90
53904;DHT22;39812;52.430;16.936;2023-08-07T14:33:26;22.40;92.20
53904;DHT22;39812;52.430;16.936;2023-08-07T14:35:52;23.30;90.90
53904;DHT22;39812;52.430;16.936;2023-08-07T14:38:17;23.30;90.20
53904;DHT22;39812;52.430;16.936;2023-08-07T14:40:43;24.00;88.60
53904;DHT22;39812;52.430;16.936;2023-08-07T14:43:09;24.20;87.00
53904;DHT22;39812;52.430;16.936;2023-08-07T14:45:36;23.80;87.90
53904;DHT22;39812;52.430;16.936;2023-08-07T14:48:02;23.50;88.70
53904;DHT22;39812;52.430;16.936;2023-08-07T14:50:28;23.10;89.60
53904;DHT22;39812;52.430;16.936;2023-08-07T14:52:54;23.40;88.80
53904;DHT22;39812;52.430;16.936;2023-08-07T14:55:19;24.10;87.70
53904;DHT22;39812;52.430;16.936;2023-08-07T14:57:45;24.80;84.40
53904;DHT22;39812;52.430;16.936;2023-08-07T15:00:13;25.60;82.70
53904;DHT22;39812;52.430;16.936;2023-08-07T15:02:38;26.20;80.40
53904;DHT22;39812;52.430;16.936;2023-08-07T15:05:05;27.50;78.20
53904;DHT22;39812;52.430;16.936;2023-08-07T15:07:31;27.10;77.00
53904;DHT22;39812;52.430;16.936;2023-08-07T15:09:57;27.50;75.90
53904;DHT22;39812;52.430;16.936;2023-08-07T15:12:22;28.00;74.70
53904;DHT22;39812;52.430;16.936;2023-08-07T15:14:48;28.20;73.10
53904;DHT22;39812;52.430;16.936;2023-08-07T15:17:13;26.50;75.50
53904;DHT22;39812;52.430;16.936;2023-08-07T15:19:39;26.00;76.80
53904;DHT22;39812;52.430;16.936;2023-08-07T15:22:05;26.10;78.20
53904;DHT22;39812;52.430;16.936;2023-08-07T15:24:30;25.50;77.70
53904;DHT22;39812;52.430;16.936;2023-08-07T15:26:56;25.40;78.60